createdAt,value
2018-12-02T00:00:42.118Z,3.1
2018-12-02T00:03:42.141Z,2.8
2018-12-02T00:06:42.092Z,3.2
2018-12-02T00:09:42.050Z,3
2018-12-02T00:12:41.990Z,3.1
2018-12-02T00:15:42.228Z,3
2018-12-02T00:18:42.383Z,3.3
2018-12-02T00:21:41.892Z,3.3
2018-12-02T00:24:42.101Z,3
2018-12-02T00:27:42.366Z,3.2
2018-12-02T00:30:42.087Z,2.7
2018-12-02T00:33:42.055Z,2.7
2018-12-02T00:36:42.089Z,2.6
2018-12-02T00:39:41.903Z,2.6
2018-12-02T00:42:42.130Z,2.5
2018-12-02T00:45:41.978Z,2.9
2018-12-02T00:48:41.967Z,2.6
2018-12-02T00:51:41.952Z,2.7
2018-12-02T00:54:42.281Z,3.2
2018-12-02T00:57:42.212Z,3.2
2018-12-02T01:00:41.998Z,2.6
2018-12-02T01:03:41.849Z,2.6
2018-12-02T01:06:42.136Z,2.6
2018-12-02T01:09:42.108Z,3
2018-12-02T01:12:41.992Z,2.8
2018-12-02T01:15:42.154Z,2.9
2018-12-02T01:18:41.924Z,3.7
2018-12-02T01:21:41.914Z,2.9
2018-12-02T01:24:42.173Z,2.6
2018-12-02T01:27:41.996Z,2.5
2018-12-02T01:30:42.299Z,3
2018-12-02T01:33:42.278Z,2.4
2018-12-02T01:36:42.790Z,2.6
2018-12-02T01:39:41.851Z,2.6
2018-12-02T01:42:42.079Z,2.7
2018-12-02T01:45:42.148Z,2.8
2018-12-02T01:48:41.848Z,2.4
2018-12-02T01:51:42.340Z,2.5
2018-12-02T01:54:41.866Z,2.6
2018-12-02T01:57:42.301Z,2.3
2018-12-02T02:00:42.028Z,2.5
2018-12-02T02:03:41.939Z,2.5
2018-12-02T02:06:41.881Z,2.5
2018-12-02T02:09:42.330Z,2.8
2018-12-02T02:12:42.319Z,2.5
2018-12-02T02:15:42.114Z,2.5
2018-12-02T02:18:42.282Z,2.4
2018-12-02T02:21:41.935Z,2.7
2018-12-02T02:24:42.206Z,2.4
2018-12-02T02:27:42.406Z,2.5
2018-12-02T02:30:41.925Z,2.5
2018-12-02T02:33:42.072Z,2.6
2018-12-02T02:36:42.317Z,2.4
2018-12-02T02:39:42.104Z,2.3
2018-12-02T02:42:41.980Z,2.2
2018-12-02T02:45:42.101Z,2.2
2018-12-02T02:48:41.906Z,2.4
2018-12-02T02:51:41.904Z,2.4
2018-12-02T02:54:41.939Z,2.2
2018-12-02T02:57:42.058Z,2.4
2018-12-02T03:00:41.875Z,2.3
2018-12-02T03:03:42.276Z,2.5
2018-12-02T03:06:42.384Z,2.2
2018-12-02T03:09:42.000Z,2.3
2018-12-02T03:12:42.362Z,2.7
2018-12-02T03:15:42.061Z,2.2
2018-12-02T03:18:42.115Z,2.2
2018-12-02T03:21:41.965Z,2.1
2018-12-02T03:24:42.670Z,2.1
2018-12-02T03:27:41.821Z,2.3
2018-12-02T03:30:42.287Z,2.3
2018-12-02T03:33:42.347Z,2.1
2018-12-02T03:36:41.806Z,2.2
2018-12-02T03:39:42.001Z,2.3
2018-12-02T03:42:42.420Z,2.3
2018-12-02T03:45:41.984Z,2.2
2018-12-02T03:48:41.844Z,2.2
2018-12-02T03:51:42.317Z,2.2
2018-12-02T03:54:42.210Z,2.2
2018-12-02T03:57:41.957Z,2.1
2018-12-02T04:00:42.332Z,2.3
2018-12-02T04:03:42.423Z,2.2
2018-12-02T04:06:42.092Z,2.2
2018-12-02T04:09:42.710Z,2.3
2018-12-02T04:12:42.361Z,2.2
2018-12-02T04:15:42.194Z,1.9
2018-12-02T04:18:41.719Z,2.2
2018-12-02T04:21:42.007Z,2.2
2018-12-02T04:24:42.910Z,2.1
2018-12-02T04:27:41.844Z,2.1
2018-12-02T04:30:41.969Z,2.2
2018-12-02T04:33:41.852Z,2.2
2018-12-02T04:36:41.824Z,2.2
2018-12-02T04:39:41.990Z,1.9
2018-12-02T04:42:41.752Z,2
2018-12-02T04:45:41.784Z,2.2
2018-12-02T04:48:42.295Z,2.2
2018-12-02T04:51:41.854Z,1.9
2018-12-02T04:54:41.905Z,1.9
2018-12-02T04:57:41.957Z,1.8
2018-12-02T05:00:42.131Z,2.1
2018-12-02T05:03:42.019Z,2
2018-12-02T05:06:42.035Z,1.9
2018-12-02T05:09:42.088Z,2.1
2018-12-02T05:12:43.347Z,1.8
2018-12-02T05:15:41.939Z,2
2018-12-02T05:18:42.339Z,2.1
2018-12-02T05:21:42.122Z,1.9
2018-12-02T05:24:41.951Z,1.8
2018-12-02T05:27:43.215Z,2.1
2018-12-02T05:30:41.803Z,1.8
2018-12-02T05:33:42.335Z,2
2018-12-02T05:36:42.150Z,1.9
2018-12-02T05:39:41.756Z,2.1
2018-12-02T05:42:41.826Z,2.8
2018-12-02T05:45:42.204Z,1.9
2018-12-02T05:48:41.841Z,1.9
2018-12-02T05:51:41.897Z,1.8
2018-12-02T05:54:42.283Z,2
2018-12-02T05:57:41.744Z,1.8
2018-12-02T06:00:41.872Z,1.8
2018-12-02T06:03:41.993Z,1.8
2018-12-02T06:06:41.778Z,1.7
2018-12-02T06:09:41.808Z,2
2018-12-02T06:12:41.978Z,1.9
2018-12-02T06:15:42.019Z,1.7
2018-12-02T06:18:41.892Z,1.9
2018-12-02T06:21:42.257Z,1.6
2018-12-02T06:24:41.950Z,1.8
2018-12-02T06:27:41.827Z,1.8
2018-12-02T06:30:41.875Z,2
2018-12-02T06:33:42.261Z,1.8
2018-12-02T06:36:41.991Z,1.8
2018-12-02T06:39:41.794Z,1.7
2018-12-02T06:42:42.018Z,1.7
2018-12-02T06:45:41.856Z,2.2
2018-12-02T06:48:42.044Z,1.7
2018-12-02T06:51:42.167Z,1.6
2018-12-02T06:54:41.737Z,1.7
2018-12-02T06:57:41.808Z,1.7
2018-12-02T07:00:42.155Z,1.6
2018-12-02T07:03:41.966Z,1.6
2018-12-02T07:06:41.850Z,1.7
2018-12-02T07:09:41.901Z,1.6
2018-12-02T07:12:41.693Z,1.6
2018-12-02T07:15:41.776Z,1.6
2018-12-02T07:18:42.146Z,1.7
2018-12-02T07:21:42.399Z,1.6
2018-12-02T07:24:41.805Z,1.6
2018-12-02T07:27:41.825Z,1.7
2018-12-02T07:30:42.005Z,1.6
2018-12-02T07:33:42.173Z,1.7
2018-12-02T07:36:41.791Z,1.6
2018-12-02T07:39:41.821Z,1.6
2018-12-02T07:42:41.817Z,1.6
2018-12-02T07:45:41.883Z,1.5
2018-12-02T07:48:41.915Z,1.6
2018-12-02T07:51:41.813Z,1.4
2018-12-02T07:54:41.762Z,1.6
2018-12-02T07:57:41.828Z,1.6
2018-12-02T08:00:41.877Z,1.6
2018-12-02T08:03:41.780Z,1.5
2018-12-02T08:06:41.793Z,1.6
2018-12-02T08:09:42.255Z,1.5
2018-12-02T08:12:42.000Z,1.5
2018-12-02T08:15:41.762Z,1.5
2018-12-02T08:18:42.110Z,1.9
2018-12-02T08:21:41.791Z,1.5
2018-12-02T08:24:41.695Z,1.5
2018-12-02T08:27:41.820Z,1.5
2018-12-02T08:30:42.278Z,1.4
2018-12-02T08:33:41.837Z,1.5
2018-12-02T08:36:41.943Z,1.6
2018-12-02T08:39:42.140Z,1.5
2018-12-02T08:42:42.096Z,1.5
2018-12-02T08:45:42.186Z,1.5
2018-12-02T08:48:42.184Z,3
2018-12-02T08:51:42.015Z,1.9
2018-12-02T08:54:41.909Z,3.1
2018-12-02T08:57:41.810Z,2.9
2018-12-02T09:00:41.990Z,2.5
2018-12-02T09:03:42.153Z,4.1
2018-12-02T09:06:41.866Z,1.5
2018-12-02T09:09:42.153Z,1.6
2018-12-02T09:12:41.719Z,2.1
2018-12-02T09:15:42.659Z,4.8
2018-12-02T09:18:41.973Z,4.9
2018-12-02T09:21:41.831Z,5.9
2018-12-02T09:24:41.730Z,5.7
2018-12-02T09:27:42.002Z,3.2
2018-12-02T09:30:41.956Z,4.3
2018-12-02T09:33:41.737Z,3.2
2018-12-02T09:36:42.014Z,3
2018-12-02T09:39:41.800Z,2.6
2018-12-02T09:42:41.994Z,2.1
2018-12-02T09:45:42.311Z,2.5
2018-12-02T09:48:42.282Z,4.5
2018-12-02T09:51:41.635Z,3.1
2018-12-02T09:54:41.742Z,4.7
2018-12-02T09:57:42.165Z,1.4
2018-12-02T10:00:42.032Z,1.6
2018-12-02T10:03:41.762Z,1.4
2018-12-02T10:06:43.061Z,2.1
2018-12-02T10:09:42.385Z,2.8
2018-12-02T10:12:45.080Z,7.3
2018-12-02T10:15:42.139Z,3.5
2018-12-02T10:18:41.724Z,3.9
2018-12-02T10:21:42.185Z,3.4
2018-12-02T10:24:41.885Z,4.8
2018-12-02T10:27:41.879Z,2.6
2018-12-02T10:30:41.933Z,1.9
2018-12-02T10:33:41.904Z,3.8
2018-12-02T10:36:42.781Z,4.2
2018-12-02T10:39:41.713Z,2.6
2018-12-02T10:42:42.061Z,1.6
2018-12-02T10:45:41.904Z,2.6
2018-12-02T10:48:42.188Z,7.3
2018-12-02T10:51:41.733Z,3.9
2018-12-02T10:54:41.897Z,3.4
2018-12-02T10:57:41.871Z,4.9
2018-12-02T11:00:41.848Z,3.8
2018-12-02T11:03:43.027Z,6.7
2018-12-02T11:06:43.268Z,5.4
2018-12-02T11:09:43.627Z,3.6
2018-12-02T11:12:43.729Z,3.6
2018-12-02T11:15:41.970Z,3.1
2018-12-02T11:18:42.738Z,5.8
2018-12-02T11:21:42.059Z,17.5
2018-12-02T11:24:42.505Z,6.6
2018-12-02T11:27:42.090Z,7.3
2018-12-02T11:30:41.861Z,10.9
2018-12-02T11:33:41.851Z,12.6
2018-12-02T11:36:41.874Z,11
2018-12-02T11:39:41.991Z,9.3
2018-12-02T11:42:41.816Z,5.1
2018-12-02T11:45:42.055Z,7.6
2018-12-02T11:48:42.823Z,9.2
2018-12-02T11:51:42.057Z,7.1
2018-12-02T11:54:41.878Z,4.8
2018-12-02T11:57:41.783Z,7.3
2018-12-02T12:00:41.942Z,4.6
2018-12-02T12:03:41.607Z,5.2
2018-12-02T12:06:42.118Z,7.7
2018-12-02T12:09:41.998Z,4.4
2018-12-02T12:12:41.779Z,3.4
2018-12-02T12:15:41.823Z,3.6
2018-12-02T12:18:41.927Z,3.8
2018-12-02T12:21:41.608Z,3.2
2018-12-02T12:24:41.899Z,3
2018-12-02T12:27:41.800Z,3.2
2018-12-02T12:30:41.895Z,7.6
2018-12-02T12:33:41.920Z,3.1
2018-12-02T12:36:42.567Z,3.9
2018-12-02T12:39:41.754Z,3.6
2018-12-02T12:42:41.717Z,3.1
2018-12-02T12:45:41.809Z,3.3
2018-12-02T12:48:42.023Z,3.5
2018-12-02T12:51:41.734Z,3.7
2018-12-02T12:54:41.606Z,4.4
2018-12-02T12:57:42.320Z,2.2
2018-12-02T13:00:41.886Z,2.9
2018-12-02T13:03:42.069Z,3.6
2018-12-02T13:06:42.071Z,2.9
2018-12-02T13:09:42.117Z,2.2
2018-12-02T13:12:41.900Z,4.1
2018-12-02T13:15:41.923Z,3.6
2018-12-02T13:18:41.978Z,1.7
2018-12-02T13:21:41.815Z,3.3
2018-12-02T13:24:42.114Z,2.7
2018-12-02T13:27:41.726Z,1.9
2018-12-02T13:30:41.929Z,1.8
2018-12-02T13:33:41.868Z,3.2
2018-12-02T13:36:41.937Z,4.1
2018-12-02T13:39:41.916Z,2.8
2018-12-02T13:42:41.843Z,2.9
2018-12-02T13:45:41.574Z,3.5
2018-12-02T13:48:41.874Z,2.4
2018-12-02T13:51:41.825Z,2.8
2018-12-02T13:54:42.036Z,2
2018-12-02T13:57:41.952Z,2
2018-12-02T14:00:42.030Z,1.5
2018-12-02T14:03:41.764Z,1.8
2018-12-02T14:06:42.218Z,1.8
2018-12-02T14:09:41.567Z,2.8
2018-12-02T14:12:41.943Z,3.1
2018-12-02T14:15:41.828Z,2.4
2018-12-02T14:18:42.842Z,5.3
2018-12-02T14:21:41.804Z,5.2
2018-12-02T14:24:41.995Z,5.2
2018-12-02T14:27:42.191Z,2.9
2018-12-02T14:30:41.727Z,3.4
2018-12-02T14:33:41.749Z,3.6
2018-12-02T14:36:42.953Z,4.4
2018-12-02T14:39:42.198Z,4.7
2018-12-02T14:42:42.518Z,11.6
2018-12-02T14:45:42.123Z,4.4
2018-12-02T14:48:42.464Z,4.6
2018-12-02T14:51:42.098Z,5.9
2018-12-02T14:54:41.779Z,4.3
2018-12-02T14:57:41.790Z,10.5
2018-12-02T15:00:41.987Z,5.2
2018-12-02T15:03:42.630Z,11.7
2018-12-02T15:06:41.758Z,7.6
2018-12-02T15:09:41.865Z,12.3
2018-12-02T15:12:41.694Z,5.5
2018-12-02T15:15:41.825Z,5.7
2018-12-02T15:18:41.771Z,4.7
2018-12-02T15:21:42.095Z,5.3
2018-12-02T15:24:41.977Z,13.2
2018-12-02T15:27:41.879Z,5.2
2018-12-02T15:30:41.922Z,4.7
2018-12-02T15:33:41.571Z,7
2018-12-02T15:36:41.848Z,6.2
2018-12-02T15:39:42.364Z,6.1
2018-12-02T15:42:41.589Z,6.3
2018-12-02T15:45:41.821Z,7.3
2018-12-02T15:48:41.794Z,4.7
2018-12-02T15:51:41.656Z,4.7
2018-12-02T15:54:43.501Z,2.7
2018-12-02T15:57:41.799Z,5.4
2018-12-02T16:00:41.737Z,2.4
2018-12-02T16:03:42.100Z,3.9
2018-12-02T16:06:42.723Z,4.6
2018-12-02T16:09:41.985Z,4.5
2018-12-02T16:12:41.552Z,4.5
2018-12-02T16:15:41.780Z,2.2
2018-12-02T16:18:42.137Z,2.2
2018-12-02T16:21:41.618Z,3.3
2018-12-02T16:24:42.044Z,3
2018-12-02T16:27:41.925Z,2.5
2018-12-02T16:30:41.761Z,4.8
2018-12-02T16:33:42.130Z,4
2018-12-02T16:36:41.873Z,3.2
2018-12-02T16:39:41.823Z,2.7
2018-12-02T16:42:41.556Z,2.1
2018-12-02T16:45:41.921Z,3.8
2018-12-02T16:48:42.171Z,3.3
2018-12-02T16:51:41.541Z,3.3
2018-12-02T16:54:41.904Z,7.3
2018-12-02T16:57:41.720Z,3.2
2018-12-02T17:00:41.671Z,3.9
2018-12-02T17:03:41.573Z,4.6
2018-12-02T17:06:42.092Z,5.6
2018-12-02T17:09:41.805Z,4
2018-12-02T17:12:41.846Z,4.8
2018-12-02T17:15:41.965Z,4.8
2018-12-02T17:18:42.385Z,3
2018-12-02T17:21:41.602Z,5.2
2018-12-02T17:24:41.618Z,4
2018-12-02T17:27:41.659Z,2.2
2018-12-02T17:30:41.722Z,4.7
2018-12-02T17:33:41.744Z,3.7
2018-12-02T17:36:41.844Z,2.1
2018-12-02T17:39:41.755Z,2.2
2018-12-02T17:42:41.938Z,2.2
2018-12-02T17:45:41.626Z,3.1
2018-12-02T17:48:41.725Z,2.5
2018-12-02T17:51:41.488Z,2.3
2018-12-02T17:54:41.681Z,2.8
2018-12-02T17:57:41.632Z,2.8
2018-12-02T18:00:41.747Z,1.7
2018-12-02T18:03:42.334Z,1.5
2018-12-02T18:06:41.646Z,2.5
2018-12-02T18:09:41.737Z,2.2
2018-12-02T18:12:41.989Z,2.1
2018-12-02T18:15:41.916Z,1.6
2018-12-02T18:18:41.693Z,3.4
2018-12-02T18:21:41.891Z,2.1
2018-12-02T18:24:41.709Z,1.6
2018-12-02T18:27:41.934Z,2.4
2018-12-02T18:30:41.473Z,2.1
2018-12-02T18:33:41.565Z,2.1
2018-12-02T18:36:41.933Z,1.7
2018-12-02T18:39:42.134Z,1.8
2018-12-02T18:42:41.937Z,1.8
2018-12-02T18:45:41.682Z,2.8
2018-12-02T18:48:41.993Z,1.4
2018-12-02T18:51:41.643Z,3.2
2018-12-02T18:54:42.248Z,1.3
2018-12-02T18:57:41.972Z,1.4
2018-12-02T19:00:41.476Z,1.4
2018-12-02T19:03:41.911Z,1.8
2018-12-02T19:06:42.155Z,1.9
2018-12-02T19:09:41.517Z,1.6
2018-12-02T19:12:42.063Z,1.6
2018-12-02T19:15:41.895Z,1.6
2018-12-02T19:18:41.690Z,1.3
2018-12-02T19:21:41.531Z,2.4
2018-12-02T19:24:41.967Z,2.2
2018-12-02T19:27:41.976Z,1.2
2018-12-02T19:30:43.229Z,4.9
2018-12-02T19:33:41.879Z,6.9
2018-12-02T19:36:41.666Z,2.9
2018-12-02T19:39:42.194Z,4.7
2018-12-02T19:42:41.493Z,3.3
2018-12-02T19:45:42.290Z,2.7
2018-12-02T19:48:41.779Z,4.3
2018-12-02T19:51:41.449Z,2.9
2018-12-02T19:54:41.574Z,4.8
2018-12-02T19:57:42.160Z,2.8
2018-12-02T20:00:41.715Z,3.5
2018-12-02T20:03:41.857Z,3
2018-12-02T20:06:41.953Z,3.9
2018-12-02T20:09:42.373Z,3.8
2018-12-02T20:12:42.406Z,2.4
2018-12-02T20:15:41.548Z,2
2018-12-02T20:18:41.379Z,2.4
2018-12-02T20:21:41.951Z,1.6
2018-12-02T20:24:41.578Z,2
2018-12-02T20:27:41.803Z,3.5
2018-12-02T20:30:41.468Z,3.2
2018-12-02T20:33:41.551Z,3.1
2018-12-02T20:36:41.544Z,5.4
2018-12-02T20:39:41.574Z,1.6
2018-12-02T20:42:41.739Z,5.1
2018-12-02T20:45:41.439Z,5.5
2018-12-02T20:48:41.998Z,3.4
2018-12-02T20:51:41.729Z,2.2
2018-12-02T20:54:41.412Z,6.7
2018-12-02T20:57:41.465Z,2.1
2018-12-02T21:00:42.096Z,2.3
2018-12-02T21:03:41.943Z,3.7
2018-12-02T21:06:41.526Z,2.7
2018-12-02T21:09:41.601Z,3.2
2018-12-02T21:12:41.960Z,3.7
2018-12-02T21:15:41.378Z,2.6
2018-12-02T21:18:41.683Z,3.7
2018-12-02T21:21:41.499Z,1.7
2018-12-02T21:24:41.455Z,2.9
2018-12-02T21:27:41.553Z,1.9
2018-12-02T21:30:41.520Z,1.7
2018-12-02T21:33:41.939Z,2.8
2018-12-02T21:36:41.359Z,1.8
2018-12-02T21:39:41.493Z,1.8
2018-12-02T21:42:41.738Z,1.5
2018-12-02T21:45:41.432Z,2.2
2018-12-02T21:48:41.472Z,1.6
2018-12-02T21:51:41.972Z,2.6
2018-12-02T21:54:41.380Z,3.1
2018-12-02T21:57:41.796Z,1.6
2018-12-02T22:00:42.135Z,2.2
2018-12-02T22:03:41.935Z,2.6
2018-12-02T22:06:42.379Z,2.2
2018-12-02T22:09:41.821Z,2.7
2018-12-02T22:12:41.818Z,2.3
2018-12-02T22:15:41.310Z,1.5
2018-12-02T22:18:41.411Z,1.4
2018-12-02T22:21:41.790Z,1.8
2018-12-02T22:24:41.464Z,1.3
2018-12-02T22:27:41.829Z,1.8
2018-12-02T22:30:43.019Z,1.2
2018-12-02T22:33:41.620Z,2.7
2018-12-02T22:36:41.836Z,1.5
2018-12-02T22:39:41.594Z,2.1
2018-12-02T22:42:41.833Z,2.1
2018-12-02T22:45:41.329Z,2.9
2018-12-02T22:48:41.502Z,2.2
2018-12-02T22:51:41.861Z,1.5
2018-12-02T22:54:41.581Z,1.3
2018-12-02T22:57:41.655Z,2.2
2018-12-02T23:00:41.544Z,1.3
2018-12-02T23:03:41.479Z,1.2
2018-12-02T23:06:41.896Z,1.3
2018-12-02T23:09:42.016Z,1.3
2018-12-02T23:12:41.953Z,1.7
2018-12-02T23:15:41.618Z,2
2018-12-02T23:18:42.098Z,1.6
2018-12-02T23:21:41.485Z,1.3
2018-12-02T23:24:41.365Z,1.5
2018-12-02T23:27:41.445Z,1.4
2018-12-02T23:30:41.783Z,1.4
2018-12-02T23:33:41.372Z,1.3
2018-12-02T23:36:41.800Z,1.2
2018-12-02T23:39:41.404Z,1.5
2018-12-02T23:42:41.411Z,1.6
2018-12-02T23:45:41.525Z,1.4
2018-12-02T23:48:41.364Z,1.4
2018-12-02T23:51:41.578Z,1.4
2018-12-02T23:54:41.830Z,1.2
2018-12-02T23:57:41.549Z,1.2
